Time;durP1;ratioP1;P1;durP2;ratioP2;P2;SDS_P1;SDS_P2;PMS_P1;PMS_P2;Temp;Humidity;BMP_temperature;BMP_pressure;BME280_temperature;BME280_humidity;BME280_pressure;Samples;Min_cycle;Max_cycle;Signal;HPM_P1;HPM_P2
2023/04/02 00:01:47;;;;;;;6.55;1.90;;;;;;;2.86;64.50;101571.50;7390035;19;20029;-58
2023/04/02 00:04:21;;;;;;;7.60;1.80;;;;;;;2.86;65.30;101567.09;7391964;19;20018;-58
2023/04/02 00:06:53;;;;;;;7.68;2.08;;;;;;;2.83;65.05;101574.22;7391478;19;20006;-59
2023/04/02 00:09:31;;;;;;;7.65;2.20;;;;;;;2.78;64.47;101576.19;7393417;19;20026;-58
2023/04/02 00:11:57;;;;;;;8.15;2.53;;;;;;;2.72;65.43;101579.84;7391411;19;20017;-58
2023/04/02 00:14:29;;;;;;;5.25;1.83;;;;;;;2.70;65.58;101584.31;7392429;19;20003;-58
2023/04/02 00:16:56;;;;;;;7.00;2.30;;;;;;;2.72;65.38;101592.97;7390602;19;20383;-58
2023/04/02 00:19:24;;;;;;;6.88;1.75;;;;;;;2.68;65.54;101599.25;7389955;19;20470;-58
2023/04/02 00:21:50;;;;;;;9.75;2.30;;;;;;;2.75;65.33;101594.66;7391443;19;20003;-58
2023/04/02 00:24:20;;;;;;;7.35;1.80;;;;;;;2.80;65.33;101600.56;7393038;19;20014;-58
2023/04/02 00:26:51;;;;;;;5.93;1.80;;;;;;;2.67;65.47;101608.03;7388611;19;20007;-58
2023/04/02 00:29:20;;;;;;;7.63;1.90;;;;;;;2.64;65.35;101616.00;7392359;19;20011;-58
2023/04/02 00:31:51;;;;;;;7.22;1.90;;;;;;;2.60;65.98;101628.38;7390422;19;20474;-58
2023/04/02 00:34:24;;;;;;;8.13;2.40;;;;;;;2.71;65.37;101620.13;7390329;19;20523;-58
2023/04/02 00:36:53;;;;;;;7.55;1.80;;;;;;;2.75;64.84;101629.59;7389885;19;20006;-58
2023/04/02 00:39:26;;;;;;;7.93;1.90;;;;;;;2.74;64.53;101632.28;7391221;19;20491;-58
2023/04/02 00:42:06;;;;;;;9.68;2.03;;;;;;;2.51;65.37;101633.09;7388442;19;20005;-58
2023/04/02 00:44:41;;;;;;;7.30;2.65;;;;;;;2.62;65.33;101641.44;7390447;19;20006;-58
2023/04/02 00:47:13;;;;;;;10.93;1.48;;;;;;;2.61;65.04;101643.19;7384578;19;20007;-60
2023/04/02 00:49:40;;;;;;;5.43;1.75;;;;;;;2.50;65.45;101652.34;7390205;19;20010;-59
2023/04/02 00:52:12;;;;;;;6.85;1.75;;;;;;;2.61;65.38;101658.06;7389011;19;19999;-61
2023/04/02 00:54:46;;;;;;;5.97;1.92;;;;;;;2.73;64.91;101660.31;7390303;19;20034;-61
2023/04/02 00:57:15;;;;;;;;;;;;;;;2.54;64.41;101654.84;7389656;19;20027;-61
2023/04/02 01:00:14;;;;;;;9.70;2.25;;;;;;;2.57;65.11;101659.94;7390555;19;19910;-61
2023/04/02 01:02:40;;;;;;;5.72;1.55;;;;;;;2.56;65.21;101668.72;7386828;19;20015;-60
2023/04/02 01:05:20;;;;;;;7.75;2.10;;;;;;;2.56;65.37;101662.63;7390012;19;20006;-61
2023/04/02 01:08:36;;;;;;;5.63;1.50;;;;;;;2.54;64.71;101662.69;7390271;19;20013;-60
2023/04/02 01:11:30;;;;;;;5.43;1.35;;;;;;;2.50;64.48;101666.34;7388776;19;20010;-61
2023/04/02 01:14:01;;;;;;;7.10;1.88;;;;;;;2.42;65.65;101673.56;7387659;19;20070;-60
2023/04/02 01:16:29;;;;;;;5.72;1.60;;;;;;;2.30;nan;101676.59;7386148;19;20450;-62
2023/04/02 01:19:17;;;;;;;5.45;1.45;;;;;;;2.40;65.29;101684.13;7388075;19;19998;-61
2023/04/02 01:21:52;;;;;;;5.63;1.70;;;;;;;2.47;65.14;101686.56;7389666;19;20016;-61
2023/04/02 01:24:20;;;;;;;7.35;1.88;;;;;;;2.31;65.40;101683.56;7389697;19;20002;-60
2023/04/02 01:27:00;;;;;;;10.40;1.98;;;;;;;2.11;65.40;101689.44;7388743;19;20020;-59
2023/04/02 01:29:39;;;;;;;9.45;1.70;;;;;;;2.12;66.08;101697.28;7398285;19;20082;-60
2023/04/02 01:32:12;;;;;;;5.47;1.65;;;;;;;2.24;65.47;101698.66;7395512;19;19995;-60
2023/04/02 01:34:38;;;;;;;9.48;1.80;;;;;;;2.25;65.57;101702.97;7396729;19;20613;-59
2023/04/02 01:37:35;;;;;;;6.50;1.92;;;;;;;2.18;65.60;101709.31;7393539;19;20319;-60
2023/04/02 01:40:22;;;;;;;6.20;1.90;;;;;;;2.32;65.31;101716.75;7395659;19;20054;-60
2023/04/02 01:43:12;;;;;;;6.13;1.70;;;;;;;2.25;64.79;101721.34;7396474;19;19995;-60
2023/04/02 01:45:38;;;;;;;9.25;2.05;;;;;;;2.32;65.17;101725.47;7395948;19;20006;-59
2023/04/02 01:48:28;;;;;;;6.05;1.90;;;;;;;2.28;64.72;101723.88;7396410;19;20009;-61
2023/04/02 01:50:57;;;;;;;7.68;2.10;;;;;;;2.31;65.11;101729.00;7396377;19;20503;-61
2023/04/02 01:53:26;;;;;;;8.30;1.80;;;;;;;2.26;65.41;101737.91;7395853;19;20499;-59
2023/04/02 01:56:00;;;;;;;9.95;1.67;;;;;;;2.38;64.76;101741.00;7395331;19;20009;-58
2023/04/02 01:58:30;;;;;;;8.20;1.80;;;;;;;2.28;64.86;101746.59;7396809;19;20022;-58
2023/04/02 02:01:01;;;;;;;8.93;2.15;;;;;;;2.32;64.93;101750.84;7396911;19;20015;-60
2023/04/02 02:03:26;;;;;;;5.82;1.70;;;;;;;2.20;65.44;101751.22;7395735;19;20006;-59
2023/04/02 02:05:53;;;;;;;7.82;1.98;;;;;;;2.23;64.86;101757.22;7395679;19;20440;-61
2023/04/02 02:08:33;;;;;;;8.45;1.90;;;;;;;2.35;64.78;101761.22;7396888;19;19999;-60
2023/04/02 02:10:59;;;;;;;6.75;1.77;;;;;;;2.32;64.69;101766.56;7396453;19;19999;-60
2023/04/02 02:13:25;;;;;;;11.98;2.22;;;;;;;2.26;64.89;101769.38;7395854;19;20009;-60
2023/04/02 02:15:51;;;;;;;6.25;1.85;;;;;;;2.13;65.18;101777.63;7394349;19;20062;-60
2023/04/02 02:18:22;;;;;;;6.75;1.60;;;;;;;2.21;65.23;101784.41;7396147;19;20002;-60
2023/04/02 02:20:50;;;;;;;4.38;1.60;;;;;;;2.20;65.19;101782.66;7395667;19;19994;-60
2023/04/02 02:23:16;;;;;;;5.65;1.60;;;;;;;2.26;64.79;101792.97;7394537;19;20003;-60
2023/04/02 02:25:43;;;;;;;6.20;1.73;;;;;;;2.28;64.45;101799.03;7393455;19;20002;-61
2023/04/02 02:28:14;;;;;;;8.85;2.17;;;;;;;2.28;64.56;101799.91;7395413;19;19999;-61
2023/04/02 02:31:11;;;;;;;6.43;1.92;;;;;;;2.21;64.50;101808.00;7396050;19;19995;-61
2023/04/02 02:33:50;;;;;;;8.20;1.80;;;;;;;2.25;64.71;101814.84;7394220;19;20066;-60
2023/04/02 02:36:33;;;;;;;7.28;2.00;;;;;;;2.04;64.52;101818.97;7393606;19;19998;-59
2023/04/02 02:39:05;;;;;;;9.87;2.03;;;;;;;2.07;65.12;101824.13;7393325;19;20092;-59
2023/04/02 02:41:50;;;;;;;5.50;1.63;;;;;;;2.09;64.45;101828.44;7394818;19;20002;-59
2023/04/02 02:44:22;;;;;;;7.13;1.73;;;;;;;2.04;65.17;101830.31;7395498;19;20033;-59
2023/04/02 02:46:56;;;;;;;7.05;1.70;;;;;;;2.01;64.88;101838.28;7392633;19;20019;-61
2023/04/02 02:49:29;;;;;;;7.70;1.60;;;;;;;2.04;65.13;101839.94;7395645;19;19998;-61
2023/04/02 02:52:11;;;;;;;7.93;1.67;;;;;;;1.94;65.00;101848.97;7394757;19;20083;-62
2023/04/02 02:54:42;;;;;;;4.88;1.75;;;;;;;2.01;65.02;101851.38;7394854;19;20012;-62
2023/04/02 02:57:12;;;;;;;6.95;1.42;;;;;;;2.02;64.83;101852.22;7393071;19;20022;-60
2023/04/02 02:59:39;;;;;;;7.80;1.50;;;;;;;2.00;64.78;101854.88;7392145;19;20458;-61
2023/04/02 03:02:08;;;;;;;5.25;1.60;;;;;;;2.05;64.48;101860.88;7393602;19;20008;-60
2023/04/02 03:04:35;;;;;;;7.60;1.55;;;;;;;1.99;64.73;101866.28;7393905;19;20391;-62
2023/04/02 03:07:02;;;;;;;8.88;1.52;;;;;;;2.01;64.94;101866.25;7385624;19;20035;-61
2023/04/02 03:09:55;;;;;;;6.30;1.70;;;;;;;1.97;64.12;101864.59;7393327;19;20009;-59
2023/04/02 03:12:38;;;;;;;5.10;1.70;;;;;;;1.81;64.89;101872.03;7393505;19;19999;-60
2023/04/02 03:15:20;;;;;;;5.53;1.65;;;;;;;1.79;64.78;101881.69;7394052;19;20301;-61
2023/04/02 03:18:16;;;;;;;9.50;2.03;;;;;;;1.88;63.96;101881.44;7394110;19;19998;-60
2023/04/02 03:20:48;;;;;;;7.47;1.98;;;;;;;1.87;64.59;101885.81;7390633;19;20002;-61
2023/04/02 03:23:25;;;;;;;5.20;1.65;;;;;;;1.86;64.12;101893.72;7391088;19;20066;-60
2023/04/02 03:26:01;;;;;;;8.50;1.88;;;;;;;1.78;64.64;101899.19;7391987;19;20002;-61
2023/04/02 03:28:33;;;;;;;8.38;1.80;;;;;;;1.74;64.67;101887.06;7392960;19;20573;-61
2023/04/02 03:31:04;;;;;;;7.28;1.60;;;;;;;1.70;64.63;101895.88;7393466;19;20002;-60
2023/04/02 03:33:37;;;;;;;6.72;1.60;;;;;;;1.83;64.80;101906.91;7391945;19;20002;-59
2023/04/02 03:36:14;;;;;;;8.90;1.40;;;;;;;1.82;64.68;101905.19;7390412;19;20007;-60
2023/04/02 03:38:44;;;;;;;5.43;1.40;;;;;;;1.87;64.37;101911.16;7391653;19;19998;-59
2023/04/02 03:41:18;;;;;;;6.88;1.88;;;;;;;1.77;64.17;101922.78;7393638;19;20013;-60
2023/04/02 03:43:48;;;;;;;;;;;;;;;1.71;64.10;101917.72;7393103;19;20005;-60
2023/04/02 03:46:24;;;;;;;6.40;1.48;;;;;;;1.77;64.72;101933.25;7391136;19;20034;-60
2023/04/02 03:49:06;;;;;;;6.80;1.50;;;;;;;1.73;64.30;101934.25;7392605;19;20002;-59
2023/04/02 03:51:46;;;;;;;7.32;1.48;;;;;;;1.62;65.12;101935.38;7392112;19;20090;-60
2023/04/02 03:54:15;;;;;;;8.65;1.50;;;;;;;1.68;64.94;101944.84;7393207;19;20006;-60
2023/04/02 03:56:42;;;;;;;7.15;1.40;;;;;;;1.73;64.54;101948.19;7390352;19;20463;-61
2023/04/02 03:59:25;;;;;;;4.35;1.02;;;;;;;1.70;64.64;101947.41;7392855;19;20029;-59
2023/04/02 04:01:57;;;;;;;4.32;1.30;;;;;;;1.64;65.13;101959.78;7391869;19;20021;-60
2023/04/02 04:04:26;;;;;;;4.70;1.20;;;;;;;1.60;65.40;101963.38;7393359;19;19999;-60
2023/04/02 04:06:52;;;;;;;9.73;1.75;;;;;;;1.58;65.16;101965.16;7389646;19;20078;-60
2023/04/02 04:09:34;;;;;;;6.63;1.77;;;;;;;1.62;65.06;101973.81;7392209;19;20025;-61
2023/04/02 04:12:08;;;;;;;7.40;1.77;;;;;;;1.52;65.37;101972.34;7391136;19;20013;-60
2023/04/02 04:14:36;;;;;;;7.45;1.60;;;;;;;1.49;65.83;101981.13;7391535;19;20070;-60
2023/04/02 04:17:04;;;;;;;6.97;1.95;;;;;;;1.51;65.93;101984.56;7387196;19;20328;-60
2023/04/02 04:19:44;;;;;;;7.57;1.48;;;;;;;1.51;65.78;101983.69;7391512;19;20002;-60
2023/04/02 04:22:17;;;;;;;7.72;1.60;;;;;;;1.52;65.81;101993.28;7389291;19;20032;-61
2023/04/02 04:24:47;;;;;;;3.67;1.40;;;;;;;1.49;65.65;102002.06;7391352;19;20006;-61
2023/04/02 04:27:41;;;;;;;7.63;1.80;;;;;;;1.48;65.56;101996.88;7387720;19;20449;-60
2023/04/02 04:30:33;;;;;;;7.50;1.63;;;;;;;1.48;65.53;102010.81;7392320;19;20025;-60
2023/04/02 04:33:15;;;;;;;8.57;1.85;;;;;;;1.56;65.01;102008.88;7390004;19;19999;-60
2023/04/02 04:35:47;;;;;;;8.75;1.90;;;;;;;1.49;65.49;102012.53;7389909;19;20442;-61
2023/04/02 04:38:20;;;;;;;7.28;1.70;;;;;;;1.35;66.25;102025.09;7391962;19;20008;-61
2023/04/02 04:41:17;;;;;;;6.80;1.67;;;;;;;1.40;65.93;102028.47;7390322;19;20026;-61
2023/04/02 04:43:49;;;;;;;4.85;1.40;;;;;;;1.38;66.16;102033.72;7389204;19;19998;-61
2023/04/02 04:46:26;;;;;;;6.40;1.50;;;;;;;1.42;65.60;102045.00;7389860;19;20010;-60
2023/04/02 04:49:16;;;;;;;5.78;1.40;;;;;;;1.40;65.95;102046.81;7391446;19;20094;-59
2023/04/02 04:51:49;;;;;;;8.63;1.50;;;;;;;1.40;66.10;102047.66;7390408;19;20002;-59
2023/04/02 04:54:16;;;;;;;6.95;1.52;;;;;;;1.34;66.08;102049.56;7390724;19;20525;-59
2023/04/02 04:56:53;;;;;;;7.90;1.70;;;;;;;1.40;66.11;102060.75;7389247;19;20003;-59
2023/04/02 04:59:24;;;;;;;7.03;1.70;;;;;;;1.52;65.80;102062.22;7389957;19;20007;-60
2023/04/02 05:02:16;;;;;;;7.07;1.25;;;;;;;1.52;65.25;102072.69;7390769;19;20028;-60
2023/04/02 05:04:47;;;;;;;5.32;1.67;;;;;;;1.50;65.24;102071.00;7398004;19;20011;-62
2023/04/02 05:07:24;;;;;;;4.32;1.55;;;;;;;1.54;65.21;102083.13;7395416;19;20112;-61
2023/04/02 05:10:23;;;;;;;8.02;1.65;;;;;;;1.63;64.65;102094.25;7398020;19;19994;-61
2023/04/02 05:13:00;;;;;;;7.68;1.88;;;;;;;1.69;64.48;102093.25;7395160;19;20018;-59
2023/04/02 05:15:28;;;;;;;5.72;1.40;;;;;;;1.75;64.31;102103.59;7396745;19;20012;-60
2023/04/02 05:18:13;;;;;;;7.45;1.50;;;;;;;1.67;64.41;102116.00;7397552;19;20109;-60
2023/04/02 05:20:45;;;;;;;;;;;;;;;1.56;64.55;102124.09;7400014;19;20001;-60
2023/04/02 05:23:26;;;;;;;7.38;1.38;;;;;;;1.71;64.63;102128.13;7396899;19;19939;-61
2023/04/02 05:26:01;;;;;;;8.25;1.40;;;;;;;1.78;64.25;102128.88;7393963;19;19998;-60
2023/04/02 05:28:36;;;;;;;5.40;1.30;;;;;;;1.87;63.55;102126.03;7393921;19;20033;-60
2023/04/02 05:31:13;;;;;;;9.07;1.60;;;;;;;1.92;63.51;102140.72;7397894;19;20009;-60
2023/04/02 05:33:44;;;;;;;7.15;1.60;;;;;;;1.93;63.78;102136.38;7396135;19;20331;-60
2023/04/02 05:36:17;;;;;;;6.28;1.40;;;;;;;2.01;63.71;102139.66;7395862;19;20021;-60
2023/04/02 05:38:45;;;;;;;8.80;1.30;;;;;;;2.13;63.50;102149.84;7396335;19;20474;-60
2023/04/02 05:41:17;;;;;;;7.93;1.40;;;;;;;2.13;62.99;102146.38;7396738;19;19998;-61
2023/04/02 05:43:46;;;;;;;8.80;1.55;;;;;;;2.11;63.16;102156.88;7395319;19;20462;-60
2023/04/02 05:46:26;;;;;;;8.20;1.33;;;;;;;2.22;62.56;102161.84;7394743;19;20482;-62
2023/04/02 05:48:58;;;;;;;7.30;1.23;;;;;;;2.23;62.57;102163.56;7394526;19;20002;-60
2023/04/02 05:51:34;;;;;;;4.07;1.10;;;;;;;2.19;62.66;102167.16;7397111;19;20083;-61
2023/04/02 05:54:03;;;;;;;6.75;1.33;;;;;;;2.19;62.70;102172.41;7394617;19;20019;-60
2023/04/02 05:56:36;;;;;;;8.38;1.35;;;;;;;2.19;62.80;102180.28;7394410;19;19998;-61
2023/04/02 05:59:28;;;;;;;7.30;1.30;;;;;;;2.24;62.17;102198.53;7396903;19;19994;-61
2023/04/02 06:02:18;;;;;;;4.95;1.17;;;;;;;2.34;62.12;102189.53;7394312;19;19999;-61
2023/04/02 06:04:57;;;;;;;5.57;1.00;;;;;;;2.47;61.93;102197.97;7394864;19;20003;-60
2023/04/02 06:07:30;;;;;;;8.40;1.50;;;;;;;2.37;61.82;102200.81;7394324;19;20062;-60
2023/04/02 06:09:59;;;;;;;7.05;1.20;;;;;;;2.40;62.34;102202.50;7396008;19;20031;-61
2023/04/02 06:12:46;;;;;;;8.68;1.80;;;;;;;2.59;61.16;102208.16;7394757;19;20006;-61
2023/04/02 06:15:17;;;;;;;5.65;1.10;;;;;;;2.61;61.73;102207.19;7394798;19;20313;-61
2023/04/02 06:17:47;;;;;;;5.95;1.50;;;;;;;2.68;61.64;102217.56;7395727;19;19999;-63
2023/04/02 06:20:16;;;;;;;3.75;0.98;;;;;;;2.57;61.89;102220.44;7393952;19;20400;-60
2023/04/02 06:22:44;;;;;;;4.68;1.10;;;;;;;2.32;62.46;102230.69;7394314;19;20058;-61
2023/04/02 06:25:21;;;;;;;6.07;1.48;;;;;;;2.47;61.29;102235.56;7395733;19;20021;-60
2023/04/02 06:27:50;;;;;;;8.25;1.20;;;;;;;2.38;62.04;102233.13;7395353;19;20074;-61
2023/04/02 06:30:21;;;;;;;4.30;1.15;;;;;;;2.54;61.41;102249.38;7396020;19;19999;-61
2023/04/02 06:32:46;;;;;;;5.47;1.20;;;;;;;2.43;61.99;102249.66;7393613;19;20339;-61
2023/04/02 06:35:13;;;;;;;3.75;1.10;;;;;;;2.54;61.57;102252.00;7394623;19;20077;-61
2023/04/02 06:37:48;;;;;;;8.27;1.45;;;;;;;2.65;61.47;102249.97;7394508;19;20355;-61
2023/04/02 06:40:47;;;;;;;5.45;1.30;;;;;;;2.69;61.39;102264.72;7395180;19;20006;-61
2023/04/02 06:43:25;;;;;;;7.60;1.58;;;;;;;2.68;61.21;102263.00;7392000;19;20332;-63
2023/04/02 06:45:54;;;;;;;5.70;1.10;;;;;;;2.65;61.64;102263.09;7393353;19;20006;-62
2023/04/02 06:48:20;;;;;;;4.85;1.35;;;;;;;2.69;61.36;102269.97;7391368;19;20014;-62
2023/04/02 06:50:55;;;;;;;6.25;1.30;;;;;;;2.70;60.97;102269.09;7395211;19;20106;-62
2023/04/02 06:53:37;;;;;;;6.57;1.20;;;;;;;2.67;60.98;102276.19;7393212;19;19991;-61
2023/04/02 06:56:12;;;;;;;3.78;1.17;;;;;;;2.81;61.29;102274.09;7392694;19;20062;-62
2023/04/02 06:58:37;;;;;;;7.78;1.40;;;;;;;2.92;61.07;102276.41;7394729;19;20003;-62
2023/04/02 07:01:03;;;;;;;6.32;1.33;;;;;;;2.89;60.82;102280.00;7394148;19;20351;-60
2023/04/02 07:03:32;;;;;;;6.90;1.30;;;;;;;2.87;60.57;102279.16;7390721;19;19996;-60
2023/04/02 07:06:01;;;;;;;5.63;1.30;;;;;;;2.83;61.10;102288.00;7392851;19;20010;-60
2023/04/02 07:08:26;;;;;;;8.82;1.50;;;;;;;2.92;60.50;102289.53;7393806;19;19995;-61
2023/04/02 07:10:52;;;;;;;8.05;1.48;;;;;;;2.96;60.40;102297.31;7392817;19;20018;-61
2023/04/02 07:13:27;;;;;;;5.75;1.33;;;;;;;2.91;60.76;102299.19;7391034;19;20032;-61
2023/04/02 07:15:54;;;;;;;4.60;1.10;;;;;;;2.88;60.81;102305.38;7390625;19;20002;-61
2023/04/02 07:18:32;;;;;;;5.15;1.30;;;;;;;2.98;59.65;102310.41;7391818;19;20517;-60
2023/04/02 07:20:58;;;;;;;5.88;1.20;;;;;;;3.06;59.67;102318.94;7393522;19;20322;-60
2023/04/02 07:23:24;;;;;;;8.88;1.23;;;;;;;3.10;59.47;102324.06;7393537;19;19994;-61
2023/04/02 07:25:52;;;;;;;4.97;1.10;;;;;;;3.13;59.12;102325.75;7390894;19;20023;-61
2023/04/02 07:28:18;;;;;;;4.13;1.00;;;;;;;3.19;59.04;102330.88;7393822;19;20013;-61
2023/04/02 07:30:44;;;;;;;5.45;1.23;;;;;;;3.22;58.93;102329.91;7392432;19;20002;-60
2023/04/02 07:33:17;;;;;;;6.78;1.20;;;;;;;3.23;58.69;102332.50;7392254;19;20003;-60
2023/04/02 07:35:43;;;;;;;5.13;1.23;;;;;;;3.25;58.76;102333.31;7389141;19;20526;-61
2023/04/02 07:38:09;;;;;;;5.30;1.35;;;;;;;3.32;58.55;102337.50;7394030;19;20335;-60
2023/04/02 07:40:34;;;;;;;6.85;1.58;;;;;;;3.25;58.48;102338.56;7390933;19;20030;-61
2023/04/02 07:43:00;;;;;;;5.25;0.90;;;;;;;3.28;58.71;102335.00;7392486;19;20054;-60
2023/04/02 07:45:26;;;;;;;6.88;1.30;;;;;;;3.36;58.71;102340.91;7391694;19;20070;-61
2023/04/02 07:48:11;;;;;;;4.63;1.20;;;;;;;3.27;58.41;102344.66;7390208;19;20043;-61
2023/04/02 07:50:36;;;;;;;5.38;1.00;;;;;;;3.27;58.40;102349.06;7396246;19;20019;-61
2023/04/02 07:53:03;;;;;;;7.88;1.15;;;;;;;3.29;58.89;102350.72;7391041;19;20007;-60
2023/04/02 07:55:29;;;;;;;3.67;1.30;;;;;;;3.45;58.55;102360.81;7392361;19;20012;-61
2023/04/02 07:57:57;;;;;;;4.75;1.20;;;;;;;3.49;58.17;102368.56;7390499;19;20319;-60
2023/04/02 08:00:25;;;;;;;5.75;1.20;;;;;;;3.55;57.96;102365.78;7391991;19;20501;-61
2023/04/02 08:02:51;;;;;;;4.88;1.27;;;;;;;3.60;58.34;102368.28;7390632;19;20003;-61
2023/04/02 08:05:17;;;;;;;6.13;1.10;;;;;;;3.65;58.08;102369.06;7390721;19;20463;-61
2023/04/02 08:07:43;;;;;;;6.88;1.17;;;;;;;3.66;58.06;102360.25;7391946;19;19998;-61
2023/04/02 08:10:11;;;;;;;4.82;1.40;;;;;;;3.77;57.90;102375.75;7392118;19;20020;-60
2023/04/02 08:12:37;;;;;;;5.43;1.00;;;;;;;3.75;57.60;102373.13;7391051;19;19999;-61
2023/04/02 08:15:05;;;;;;;5.47;1.13;;;;;;;3.78;57.21;102383.56;7391113;19;20066;-60
2023/04/02 08:17:32;;;;;;;6.05;1.23;;;;;;;3.86;57.55;102389.47;7390220;19;19994;-60
2023/04/02 08:19:59;;;;;;;4.80;1.05;;;;;;;3.83;58.07;102389.56;7390920;19;20489;-61
2023/04/02 08:22:27;;;;;;;5.85;1.27;;;;;;;3.94;57.91;102396.31;7390790;19;20198;-61
2023/04/02 08:24:53;;;;;;;7.28;1.20;;;;;;;3.93;57.20;102408.63;7390584;19;19995;-59
2023/04/02 08:27:19;;;;;;;5.03;1.33;;;;;;;3.98;56.96;102419.84;7389778;19;20009;-60
2023/04/02 08:29:45;;;;;;;6.13;1.38;;;;;;;4.04;57.24;102418.84;7390733;19;19991;-60
2023/04/02 08:32:16;;;;;;;6.05;1.48;;;;;;;4.16;56.78;102417.63;7391238;19;19995;-60
2023/04/02 08:34:43;;;;;;;5.88;1.45;;;;;;;4.09;56.78;102425.69;7390150;19;20014;-60
2023/04/02 08:37:11;;;;;;;4.53;1.08;;;;;;;4.19;56.92;102428.94;7387636;19;20010;-60
2023/04/02 08:39:37;;;;;;;4.32;0.90;;;;;;;4.35;56.46;102427.56;7391247;19;20044;-61
2023/04/02 08:42:12;;;;;;;3.78;1.00;;;;;;;4.27;56.43;102428.72;7391224;19;20007;-60
2023/04/02 08:44:55;;;;;;;4.25;1.30;;;;;;;4.15;55.82;102439.59;7389288;19;20003;-59
2023/04/02 08:47:24;;;;;;;4.78;1.00;;;;;;;4.24;56.60;102441.94;7388134;19;20459;-62
2023/04/02 08:49:58;;;;;;;5.82;1.35;;;;;;;4.29;56.19;102440.88;7390554;19;20008;-59
2023/04/02 08:52:27;;;;;;;5.70;1.20;;;;;;;4.40;56.21;102440.59;7389492;19;20339;-59
2023/04/02 08:54:55;;;;;;;5.75;1.30;;;;;;;4.51;56.28;102449.03;7389578;19;20007;-59
2023/04/02 08:57:34;;;;;;;5.93;1.17;;;;;;;4.58;56.27;102444.47;7388437;19;20006;-59
2023/04/02 09:00:09;;;;;;;6.13;1.27;;;;;;;4.60;55.38;102455.78;7389588;19;19991;-60
2023/04/02 09:02:52;;;;;;;6.60;1.30;;;;;;;4.58;54.98;102447.94;7389158;19;20002;-60
2023/04/02 09:05:27;;;;;;;5.07;0.90;;;;;;;4.63;55.14;102452.22;7388822;19;20470;-60
2023/04/02 09:07:55;;;;;;;5.40;1.17;;;;;;;4.54;55.39;102451.56;7388637;19;20483;-60
2023/04/02 09:10:37;;;;;;;6.45;1.25;;;;;;;4.53;55.17;102456.91;7390211;19;20007;-62
2023/04/02 09:13:15;;;;;;;6.25;1.08;;;;;;;4.66;55.83;102460.03;7388941;19;20005;-63
2023/04/02 09:15:40;;;;;;;8.93;1.45;;;;;;;4.64;56.05;102469.72;7388295;19;19998;-60
2023/04/02 09:18:15;;;;;;;5.65;1.00;;;;;;;4.61;55.70;102470.69;7390303;19;20022;-60
2023/04/02 09:20:41;;;;;;;3.58;1.25;;;;;;;4.60;55.58;102474.22;7390331;19;19995;-61
2023/04/02 09:23:21;;;;;;;3.20;1.00;;;;;;;4.54;55.42;102475.25;7388371;19;20086;-60
2023/04/02 09:25:50;;;;;;;4.65;1.10;;;;;;;4.55;55.58;102476.13;7387014;19;20005;-60
2023/04/02 09:28:16;;;;;;;7.35;1.30;;;;;;;4.67;54.99;102472.28;7387437;19;20195;-61
2023/04/02 09:30:51;;;;;;;5.15;1.20;;;;;;;4.74;54.76;102472.03;7390098;19;20011;-61
2023/04/02 09:33:17;;;;;;;5.32;1.20;;;;;;;4.89;55.32;102473.34;7389130;19;20003;-61
2023/04/02 09:35:55;;;;;;;5.63;1.20;;;;;;;5.03;54.42;102483.47;7388623;19;20009;-59
2023/04/02 09:38:22;;;;;;;5.18;1.25;;;;;;;5.14;53.15;102488.41;7389741;19;20006;-60
2023/04/02 09:40:58;;;;;;;5.15;0.98;;;;;;;5.15;53.25;102484.84;7389068;19;19990;-61
2023/04/02 09:43:28;;;;;;;8.15;2.22;;;;;;;5.23;54.32;102488.09;7388155;19;20001;-60
2023/04/02 09:45:57;;;;;;;5.80;1.20;;;;;;;5.25;52.95;102497.69;7388338;19;20092;-60
2023/04/02 09:48:35;;;;;;;4.35;1.10;;;;;;;5.17;53.42;102502.31;7388339;19;20033;-60
2023/04/02 09:51:19;;;;;;;4.85;1.20;;;;;;;5.21;52.43;102500.44;7396842;19;20441;-60
2023/04/02 09:54:07;;;;;;;3.50;0.80;;;;;;;5.29;52.32;102509.00;7395147;19;20018;-60
2023/04/02 09:56:34;;;;;;;3.30;0.85;;;;;;;5.30;52.60;102508.09;7394402;19;20327;-60
2023/04/02 09:59:14;;;;;;;5.30;1.15;;;;;;;5.42;52.86;102505.06;7394243;19;20009;-61
2023/04/02 10:01:43;;;;;;;3.70;1.05;;;;;;;5.46;53.23;102511.94;7393260;19;19999;-60
2023/04/02 10:04:43;;;;;;;6.55;2.20;;;;;;;5.48;51.80;102517.19;7395731;19;19995;-59
2023/04/02 10:07:28;;;;;;;5.45;1.10;;;;;;;5.55;52.54;102508.13;7392727;19;20010;-60
2023/04/02 10:09:59;;;;;;;5.30;1.13;;;;;;;5.65;52.58;102521.91;7395230;19;20006;-60
2023/04/02 10:12:26;;;;;;;2.55;0.90;;;;;;;5.67;52.79;102517.41;7394976;19;20072;-60
2023/04/02 10:14:53;;;;;;;5.43;1.15;;;;;;;5.74;51.58;102517.16;7395636;19;20003;-59
2023/04/02 10:17:27;;;;;;;3.72;0.90;;;;;;;5.97;52.07;102516.38;7393306;19;20059;-60
2023/04/02 10:19:57;;;;;;;4.30;1.02;;;;;;;5.93;51.85;102524.47;7395009;19;19998;-59
2023/04/02 10:22:23;;;;;;;6.28;1.10;;;;;;;5.91;51.75;102529.81;7394593;19;19998;-59
2023/04/02 10:24:50;;;;;;;5.53;1.20;;;;;;;6.01;51.89;102532.97;7395182;19;20026;-59
2023/04/02 10:27:24;;;;;;;5.43;1.30;;;;;;;5.95;51.09;102528.78;7393208;19;20002;-59
2023/04/02 10:30:23;;;;;;;5.20;1.17;;;;;;;6.14;50.39;102541.34;7394969;19;19999;-59
2023/04/02 10:33:14;;;;;;;4.50;1.15;;;;;;;6.30;50.76;102534.59;7394041;19;20026;-61
2023/04/02 10:35:51;;;;;;;2.67;0.88;;;;;;;6.51;50.46;102541.81;7392695;19;20010;-61
2023/04/02 10:38:42;;;;;;;4.53;0.88;;;;;;;6.81;48.92;102541.56;7393238;19;20078;-62
2023/04/02 10:41:17;;;;;;;3.80;1.10;;;;;;;6.82;47.35;102543.31;7391726;19;19999;-62
2023/04/02 10:44:14;;;;;;;3.90;1.00;;;;;;;6.75;47.60;102541.81;7393837;19;19999;-61
2023/04/02 10:47:18;;;;;;;4.60;0.88;;;;;;;6.74;48.67;102546.25;7392518;19;20003;-61
2023/04/02 10:49:57;;;;;;;3.40;1.05;;;;;;;6.50;49.67;102555.91;7390437;19;20027;-60
2023/04/02 10:52:29;;;;;;;3.38;1.00;;;;;;;6.60;48.66;102547.66;7393150;19;19995;-62
2023/04/02 10:55:04;;;;;;;3.25;0.90;;;;;;;6.79;48.22;102552.19;7394199;19;20002;-60
2023/04/02 10:57:33;;;;;;;2.05;0.80;;;;;;;6.94;48.29;102558.69;7392236;19;19999;-61
2023/04/02 11:00:17;;;;;;;4.43;0.70;;;;;;;7.16;47.36;102561.38;7392713;19;19991;-59
2023/04/02 11:03:08;;;;;;;6.47;0.90;;;;;;;7.24;47.86;102569.88;7393213;19;20018;-60
2023/04/02 11:05:42;;;;;;;3.55;0.73;;;;;;;7.02;48.37;102563.69;7393116;19;19998;-61
2023/04/02 11:08:08;;;;;;;2.42;0.75;;;;;;;6.79;49.66;102569.84;7393659;19;20073;-60
2023/04/02 11:10:38;;;;;;;1.95;0.70;;;;;;;6.94;50.16;102573.69;7393988;19;20498;-60
2023/04/02 11:13:19;;;;;;;3.25;0.88;;;;;;;7.19;47.39;102576.25;7383957;19;20478;-66
2023/04/02 11:15:45;;;;;;;2.65;0.82;;;;;;;7.06;47.80;102582.94;7392762;19;20006;-66
2023/04/02 11:18:23;;;;;;;3.95;0.80;;;;;;;6.80;47.50;102579.47;7393607;19;20485;-65
2023/04/02 11:20:49;;;;;;;4.72;0.93;;;;;;;6.78;48.89;102583.97;7393814;19;20009;-68
2023/04/02 11:23:19;;;;;;;4.90;1.10;;;;;;;6.86;48.93;102583.69;7391487;19;19999;-66
2023/04/02 11:25:46;;;;;;;2.83;0.60;;;;;;;6.92;49.08;102584.31;7393188;19;20126;-66
2023/04/02 11:28:32;;;;;;;4.28;1.15;;;;;;;6.85;47.25;102595.16;7392323;19;20007;-66
2023/04/02 11:30:58;;;;;;;4.85;0.80;;;;;;;6.71;48.73;102593.03;7393129;19;20019;-66
2023/04/02 11:33:29;;;;;;;5.88;1.17;;;;;;;6.67;48.59;102591.41;7391581;19;20011;-66
2023/04/02 11:35:55;;;;;;;3.92;1.00;;;;;;;6.65;49.11;102588.81;7393040;19;20003;-66
2023/04/02 11:38:21;;;;;;;3.10;0.70;;;;;;;6.64;48.69;102592.38;7394304;19;20035;-66
2023/04/02 11:40:50;;;;;;;5.38;1.10;;;;;;;6.52;49.64;102595.47;7393165;19;20006;-67
2023/04/02 11:43:34;;;;;;;4.13;0.80;;;;;;;6.54;48.63;102599.75;7390871;19;20002;-66
2023/04/02 11:46:15;;;;;;;4.28;0.90;;;;;;;6.64;47.14;102594.16;7393095;19;20003;-66
2023/04/02 11:48:41;;;;;;;2.70;0.75;;;;;;;6.70;48.18;102597.47;7393073;19;20332;-65
2023/04/02 11:51:19;;;;;;;2.60;0.70;;;;;;;6.92;48.21;102601.94;7392774;19;20085;-66
2023/04/02 11:53:45;;;;;;;3.42;1.08;;;;;;;6.98;48.55;102591.16;7392780;19;19995;-66
2023/04/02 11:56:20;;;;;;;2.80;0.75;;;;;;;7.00;48.63;102592.81;7386098;19;20845;-66
2023/04/02 11:58:55;;;;;;;3.38;0.80;;;;;;;7.01;47.70;102591.03;7397202;19;20005;-66
2023/04/02 12:01:28;;;;;;;4.70;0.77;;;;;;;6.94;47.11;102600.13;7394692;19;20007;-66
2023/04/02 12:04:09;;;;;;;3.78;0.90;;;;;;;6.82;47.79;102604.06;7394076;19;20067;-65
2023/04/02 12:06:53;;;;;;;4.10;0.90;;;;;;;6.87;48.71;102604.75;7391720;19;20456;-67